Search the data

BODC Cruise Metadata Report for RV Jan Mayen cruise JM7

Introduction

This report collates information from the BODC cruise inventory and oceanographic databases. It presents

Cruise Inventory Information

Long name RV Jan Mayen cruise JM7
Short name JM7
Objectives and Narrative ICES Reference Number 1994 58 096
Ship RV Jan Mayen
Departure Port
Departure Date 1994-09-05
Arrival Port
Arrival Date 1994-09-10
Principal Scientist(s) Kurt Tande (University of Tromsų Norwegian College of Fishery Science)
Responsible Organisation University of Tromsų Norwegian College of Fishery Science
Associated Project(s) OMEX
IHB Sea Areas Visited Norwegian Sea
Marsden Squares Visited 251;4/287;2
Work Area Description Norwegian Sea
Work Area Bounding Polygon 65N,15E; 75N,15E; 75N,20E; 65N,20E; 65N,15E
Southern Limit 65N
Northern Limit 75N
Western Limit 15E
Eastern Limit 20E

Cruise Inventory Datasets

No information on datasets is currently available for this cruise

Cruise Inventory Mooring/Buoy Operations

No information on datasets is currently available

Summary of BODC Data Holdings for the Cruise

National Oceanographic Database

Summary

# Series Instrument Description Parameters
13 Bottle station Nitrate concentration parameters in the water column
Phosphate concentration parameters in the water column
Quality control flags
Reference numbers
Silicate concentration parameters in the water column
Vertical spatial coordinates
10 Bottle station Chlorophyll pigment concentrations in water bodies
Phaeopigment concentrations in the water column
Quality control flags
Reference numbers
Vertical spatial coordinates
69 CTD/STD cast Chlorophyll pigment concentrations in water bodies
Density of the water column
Salinity of the water column
Temperature of the water column
Vertical spatial coordinates

Note: Parameter terms are taken from the BODC Parameter Discovery Vocabulary XML (SKOS)

Full List

BODC Reference Instrument Description Date/Time Location  
891766 CTD/STD cast 1994-09-09 18:00Z 69° 48' N, 16° 13' E Click for more
891778 CTD/STD cast 1994-09-09 19:00Z 69° 46' N, 16° 24' E Click for more
891791 CTD/STD cast 1994-09-09 19:30Z 69° 45' N, 16° 34' E Click for more
891809 CTD/STD cast 1994-09-09 20:00Z 69° 45' N, 16° 40' E Click for more
891810 CTD/STD cast 1994-09-09 20:30Z 69° 44' N, 16° 43' E Click for more
891822 CTD/STD cast 1994-09-09 21:00Z 69° 44' N, 16° 46' E Click for more
891834 CTD/STD cast 1994-09-09 22:00Z 69° 45' N, 16° 51' E Click for more
891846 CTD/STD cast 1994-09-09 22:30Z 69° 45' N, 16° 57' E Click for more
891858 CTD/STD cast 1994-09-09 23:00Z 69° 45' N, 17° 7' E Click for more
891871 CTD/STD cast 1994-09-10 00:00Z 69° 44' N, 17° 19' E Click for more
891883 CTD/STD cast 1994-09-10 01:00Z 69° 40' N, 17° 31' E Click for more
891895 CTD/STD cast 1994-09-09 14:20Z 69° 33' N, 15° 40' E Click for more
891902 CTD/STD cast 1994-09-09 17:00Z 69° 31' N, 16° 1' E Click for more
891914 CTD/STD cast 1994-09-08 02:00Z 70° 25' N, 17° 1' E Click for more
891926 CTD/STD cast 1994-09-08 07:40Z 69° 57' N, 16° 40' E Click for more
891938 CTD/STD cast 1994-09-08 08:00Z 69° 57' N, 16° 45' E Click for more
891951 CTD/STD cast 1994-09-08 10:30Z 69° 55' N, 16° 51' E Click for more
891963 CTD/STD cast 1994-09-08 11:00Z 69° 55' N, 16° 57' E Click for more
891975 CTD/STD cast 1994-09-08 12:00Z 69° 53' N, 17° 13' E Click for more
891987 CTD/STD cast 1994-09-08 13:00Z 69° 52' N, 17° 30' E Click for more
891999 CTD/STD cast 1994-09-08 14:00Z 69° 49' N, 17° 46' E Click for more
892002 CTD/STD cast 1994-09-08 16:00Z 69° 48' N, 17° 43' E Click for more
892014 CTD/STD cast 1994-09-08 17:00Z 69° 46' N, 17° 40' E Click for more
892026 CTD/STD cast 1994-09-08 20:00Z 69° 47' N, 17° 22' E Click for more
892038 CTD/STD cast 1994-09-08 21:00Z 69° 49' N, 17° 4' E Click for more
892051 CTD/STD cast 1994-09-09 00:00Z 69° 51' N, 16° 46' E Click for more
892063 CTD/STD cast 1994-09-09 01:00Z 69° 52' N, 16° 42' E Click for more
892075 CTD/STD cast 1994-09-09 02:00Z 69° 52' N, 16° 36' E Click for more
892087 CTD/STD cast 1994-09-09 03:00Z 69° 52' N, 16° 33' E Click for more
892099 CTD/STD cast 1994-09-09 04:00Z 69° 53' N, 16° 31' E Click for more
892106 CTD/STD cast 1994-09-09 05:00Z 69° 54' N, 16° 22' E Click for more
892118 CTD/STD cast 1994-09-09 06:00Z 69° 49' N, 16° 0' E Click for more
892131 CTD/STD cast 1994-09-09 11:00Z 69° 35' N, 15° 6' E Click for more
892143 CTD/STD cast 1994-09-09 12:00Z 69° 34' N, 15° 19' E Click for more
892155 CTD/STD cast 1994-09-09 13:00Z 69° 34' N, 15° 34' E Click for more
892167 CTD/STD cast 1994-09-09 14:00Z 69° 33' N, 15° 37' E Click for more
892179 CTD/STD cast 1994-09-09 14:40Z 69° 33' N, 15° 42' E Click for more
892180 CTD/STD cast 1994-09-09 15:00Z 69° 33' N, 15° 43' E Click for more
892192 CTD/STD cast 1994-09-09 15:20Z 69° 33' N, 15° 46' E Click for more
892211 CTD/STD cast 1994-09-09 15:40Z 69° 32' N, 15° 49' E Click for more
892223 CTD/STD cast 1994-09-09 16:00Z 69° 32' N, 15° 55' E Click for more
892235 CTD/STD cast 1994-09-05 19:00Z 69° 47' N, 19° 16' E Click for more
892247 CTD/STD cast 1994-09-05 23:00Z 70° 19' N, 18° 57' E Click for more
892259 CTD/STD cast 1994-09-06 03:00Z 70° 21' N, 18° 34' E Click for more
892260 CTD/STD cast 1994-09-06 04:00Z 70° 22' N, 18° 12' E Click for more
892272 CTD/STD cast 1994-09-06 06:00Z 70° 22' N, 17° 54' E Click for more
892284 CTD/STD cast 1994-09-06 07:00Z 70° 23' N, 17° 36' E Click for more
892296 CTD/STD cast 1994-09-06 08:00Z 70° 24' N, 17° 18' E Click for more
892303 CTD/STD cast 1994-09-06 12:00Z 70° 24' N, 17° 13' E Click for more
892315 CTD/STD cast 1994-09-06 15:00Z 70° 25' N, 17° 10' E Click for more
892327 CTD/STD cast 1994-09-06 19:00Z 70° 26' N, 17° 5' E Click for more
892339 CTD/STD cast 1994-09-06 20:00Z 70° 26' N, 17° 4' E Click for more
892340 CTD/STD cast 1994-09-06 22:00Z 70° 28' N, 17° 2' E Click for more
892352 CTD/STD cast 1994-09-07 00:00Z 70° 30' N, 17° 4' E Click for more
892364 CTD/STD cast 1994-09-07 02:00Z 70° 31' N, 17° 7' E Click for more
892376 CTD/STD cast 1994-09-07 04:00Z 70° 31' N, 17° 10' E Click for more
892388 CTD/STD cast 1994-09-07 06:00Z 70° 31' N, 17° 9' E Click for more
892407 CTD/STD cast 1994-09-07 08:00Z 70° 31' N, 17° 5' E Click for more
892419 CTD/STD cast 1994-09-07 10:00Z 70° 33' N, 17° 4' E Click for more
892420 CTD/STD cast 1994-09-07 12:00Z 70° 34' N, 17° 6' E Click for more
892432 CTD/STD cast 1994-09-07 14:00Z 70° 35' N, 17° 10' E Click for more
892444 CTD/STD cast 1994-09-07 21:00Z 70° 25' N, 17° 10' E Click for more
892456 CTD/STD cast 1994-09-07 23:00Z 70° 24' N, 17° 13' E Click for more
892468 CTD/STD cast 1994-09-08 01:00Z 70° 24' N, 17° 11' E Click for more
892481 CTD/STD cast 1994-09-08 01:25Z 70° 25' N, 17° 6' E Click for more
892493 CTD/STD cast 1994-09-08 03:00Z 70° 26' N, 16° 31' E Click for more
892500 CTD/STD cast 1994-09-08 04:00Z 70° 27' N, 16° 0' E Click for more
892512 CTD/STD cast 1994-09-08 07:00Z 69° 58' N, 16° 33' E Click for more
892524 CTD/STD cast 1994-09-08 07:20Z 69° 57' N, 16° 37' E Click for more
1253842 Bottle station 1994-09-05 23:05Z 70° 19' N, 18° 57' E Click for more
1253854 Bottle station 1994-09-06 04:04Z 70° 22' N, 18° 12' E Click for more
1253866 Bottle station 1994-09-06 08:06Z 70° 24' N, 17° 18' E Click for more
1253878 Bottle station 1994-09-06 12:07Z 70° 24' N, 17° 13' E Click for more
1253891 Bottle station 1994-09-06 15:11Z 70° 25' N, 17° 10' E Click for more
1253909 Bottle station 1994-09-08 08:05Z 69° 57' N, 16° 45' E Click for more
1253910 Bottle station 1994-09-08 14:05Z 69° 49' N, 17° 46' E Click for more
1253922 Bottle station 1994-09-08 17:09Z 69° 46' N, 17° 40' E Click for more
1253934 Bottle station 1994-09-08 21:07Z 69° 49' N, 17° 4' E Click for more
1253946 Bottle station 1994-09-09 02:08Z 69° 52' N, 16° 36' E Click for more
1253958 Bottle station 1994-09-09 06:37Z 69° 49' N, 16° 0' E Click for more
1253971 Bottle station 1994-09-09 21:05Z 69° 44' N, 16° 46' E Click for more
1253983 Bottle station 1994-09-10 01:04Z 69° 40' N, 17° 31' E Click for more
1637072 Bottle station 1994-09-05 23:05Z 70° 19' N, 18° 57' E Click for more
1637084 Bottle station 1994-09-06 15:11Z 70° 25' N, 17° 10' E Click for more
1637096 Bottle station 1994-09-08 08:05Z 69° 57' N, 16° 45' E Click for more
1637103 Bottle station 1994-09-08 14:05Z 69° 49' N, 17° 46' E Click for more
1637115 Bottle station 1994-09-08 17:09Z 69° 46' N, 17° 40' E Click for more
1637127 Bottle station 1994-09-08 21:07Z 69° 49' N, 17° 4' E Click for more
1637139 Bottle station 1994-09-09 02:08Z 69° 52' N, 16° 36' E Click for more
1637140 Bottle station 1994-09-09 06:37Z 69° 49' N, 16° 0' E Click for more
1637152 Bottle station 1994-09-09 21:05Z 69° 44' N, 16° 46' E Click for more
1637164 Bottle station 1994-09-10 01:04Z 69° 40' N, 17° 31' E Click for more

Project Database

# Events Gear Type Parameters Held
69 CTD frame plus rosette sampler Biological detritus in the water column suspended particulate material
Particulate total and organic nitrogen concentrations in the water column
Phosphate concentration parameters in the water column
Temperature of the water column
Salinity of the water column
Phytoplankton taxonomic abundance in water bodies
Zooplankton taxonomy-related abundance per unit volume of the water column
Macroalgae generic abundance in water bodies

Silicate concentration parameters in the water column
Density of the water column
Microzooplankton taxonomic abundance in water bodies
Phytoplankton generic abundance in water bodies
Zooplankton non taxonomy-related abundance per unit volume of the water column
Phaeopigment concentrations in the water column
Nitrate concentration parameters in the water column
Terrestrial detritus in the water column suspended particulate material
Chlorophyll pigment concentrations in water bodies
Particulate total and organic carbon concentrations in the water column
1 Drifting rig with sediment traps Sedimentation flux of identified biota in the water column
Sedimentation flux of carbon, nitrogen or organic matter in the water column
Sedimentation flux of pigments in the water column
Sedimentation flux of identified biota expressed as carbon in the water column

Note: Parameter terms are taken from the BODC Parameter Discovery Vocabulary XML (SKOS)

References

Track Charts

No track charts currently available

Reports

No reports currently available